createdAt,value
2017-12-10T00:00:48.285Z,77.50
2017-12-10T00:03:27.451Z,77.60
2017-12-10T00:06:02.974Z,77.50
2017-12-10T00:08:37.805Z,77.40
2017-12-10T00:11:11.433Z,77.50
2017-12-10T00:13:48.785Z,77.50
2017-12-10T00:16:24.150Z,77.60
2017-12-10T00:18:56.765Z,77.50
2017-12-10T00:21:35.233Z,77.60
2017-12-10T00:24:13.725Z,77.40
2017-12-10T00:26:55.724Z,77.50
2017-12-10T00:29:38.642Z,77.60
2017-12-10T00:32:16.215Z,77.40
2017-12-10T00:34:56.913Z,77.40
2017-12-10T00:37:41.274Z,77.80
2017-12-10T00:40:20.797Z,77.80
2017-12-10T00:42:59.971Z,77.80
2017-12-10T00:45:35.745Z,77.70
2017-12-10T00:48:16.802Z,77.70
2017-12-10T00:50:55.604Z,77.90
2017-12-10T00:53:37.399Z,78.00
2017-12-10T00:56:06.941Z,77.90
2017-12-10T00:58:48.109Z,77.80
2017-12-10T01:01:30.116Z,77.90
2017-12-10T01:04:11.056Z,78.00
2017-12-10T01:06:48.600Z,78.00
2017-12-10T01:09:28.759Z,78.00
2017-12-10T01:12:08.016Z,78.00
2017-12-10T01:14:49.827Z,78.30
2017-12-10T01:17:29.838Z,78.30
2017-12-10T01:20:08.922Z,78.30
2017-12-10T01:22:41.934Z,78.40
2017-12-10T01:25:19.460Z,78.50
2017-12-10T01:28:01.084Z,79.20
2017-12-10T01:30:45.749Z,79.20
2017-12-10T01:33:26.332Z,79.70
2017-12-10T01:36:10.132Z,79.70
2017-12-10T01:38:54.174Z,79.70
2017-12-10T01:41:35.507Z,80.20
2017-12-10T01:44:13.518Z,80.20
2017-12-10T01:46:52.468Z,79.70
2017-12-10T01:49:31.603Z,80.10
2017-12-10T01:52:04.984Z,80.10
2017-12-10T01:54:44.865Z,80.30
2017-12-10T01:57:24.160Z,80.30
2017-12-10T02:00:01.282Z,80.40
2017-12-10T02:02:39.439Z,81.10
2017-12-10T02:05:17.263Z,80.50
2017-12-10T02:07:56.619Z,80.70
2017-12-10T02:10:35.308Z,80.80
2017-12-10T02:13:16.378Z,80.60
2017-12-10T02:15:51.096Z,80.10
2017-12-10T02:18:26.289Z,80.70
2017-12-10T02:21:02.985Z,81.90
2017-12-10T02:23:37.151Z,82.90
2017-12-10T02:26:16.028Z,84.20
2017-12-10T02:28:55.010Z,84.20
2017-12-10T02:31:34.711Z,84.90
2017-12-10T02:34:09.382Z,85.00
2017-12-10T02:36:46.271Z,84.80
2017-12-10T02:39:28.890Z,84.60
2017-12-10T02:42:10.189Z,84.30
2017-12-10T02:44:51.233Z,84.00
2017-12-10T02:47:31.386Z,83.80
2017-12-10T02:50:09.221Z,83.60
2017-12-10T02:52:48.428Z,83.70
2017-12-10T02:55:25.124Z,84.00
2017-12-10T02:58:02.822Z,84.40
2017-12-10T03:00:43.800Z,84.10
2017-12-10T03:03:23.224Z,84.30
2017-12-10T03:06:01.305Z,84.10
2017-12-10T03:08:39.515Z,84.00
2017-12-10T03:11:20.071Z,84.60
2017-12-10T03:13:58.123Z,84.20
2017-12-10T03:16:37.225Z,84.20
2017-12-10T03:19:21.114Z,84.40
2017-12-10T03:22:02.131Z,83.40
2017-12-10T03:24:41.800Z,83.50
2017-12-10T03:27:16.303Z,83.50
2017-12-10T03:29:53.608Z,82.80
2017-12-10T03:32:31.222Z,82.90
2017-12-10T03:35:09.614Z,82.70
2017-12-10T03:37:48.690Z,82.90
2017-12-10T03:40:27.073Z,82.70
2017-12-10T03:43:07.968Z,83.30
2017-12-10T03:45:46.969Z,83.20
2017-12-10T03:48:25.353Z,83.10
2017-12-10T03:51:05.449Z,83.10
2017-12-10T03:53:48.594Z,82.90
2017-12-10T03:56:31.388Z,84.00
2017-12-10T03:59:11.901Z,84.00
2017-12-10T04:01:51.549Z,84.10
2017-12-10T04:04:29.806Z,84.10
2017-12-10T04:07:07.390Z,84.10
2017-12-10T04:09:46.665Z,83.30
2017-12-10T04:12:26.049Z,83.00
2017-12-10T04:15:04.498Z,82.90
2017-12-10T04:17:43.651Z,83.10
2017-12-10T04:20:23.345Z,82.60
2017-12-10T04:23:00.359Z,83.10
2017-12-10T04:25:40.570Z,81.90
2017-12-10T04:28:19.259Z,81.80
2017-12-10T04:30:59.164Z,81.50
2017-12-10T04:33:36.748Z,81.30
2017-12-10T04:36:14.266Z,81.40
2017-12-10T04:38:51.905Z,81.30
2017-12-10T04:41:30.479Z,81.40
2017-12-10T04:44:09.778Z,81.00
2017-12-10T04:46:47.455Z,80.50
2017-12-10T04:49:24.928Z,80.50
2017-12-10T04:52:04.045Z,80.70
2017-12-10T04:54:43.017Z,80.00
2017-12-10T04:57:19.976Z,80.30
2017-12-10T05:00:00.142Z,80.50
2017-12-10T05:02:38.062Z,80.30
2017-12-10T05:05:16.218Z,80.90
2017-12-10T05:07:50.738Z,79.80
2017-12-10T05:10:25.330Z,79.80
2017-12-10T05:13:04.639Z,80.00
2017-12-10T05:15:46.950Z,80.30
2017-12-10T05:18:26.562Z,80.70
2017-12-10T05:21:03.592Z,79.80
2017-12-10T05:23:41.294Z,79.80
2017-12-10T05:26:19.777Z,80.10
2017-12-10T05:28:59.867Z,80.10
2017-12-10T05:31:39.095Z,80.50
2017-12-10T05:34:17.491Z,80.50
2017-12-10T05:36:54.926Z,79.80
2017-12-10T05:39:34.484Z,79.80
2017-12-10T05:42:13.385Z,79.70
2017-12-10T05:44:53.644Z,79.50
2017-12-10T05:47:28.405Z,79.90
2017-12-10T05:50:08.126Z,79.20
2017-12-10T05:52:45.623Z,79.10
2017-12-10T05:55:24.104Z,79.40
2017-12-10T05:57:57.281Z,79.10
2017-12-10T06:00:34.856Z,79.10
2017-12-10T06:03:18.952Z,79.30
2017-12-10T06:05:58.368Z,79.10
2017-12-10T06:08:32.388Z,79.10
2017-12-10T06:11:11.677Z,79.50
2017-12-10T06:13:51.115Z,80.10
2017-12-10T06:16:34.496Z,79.10
2017-12-10T06:19:14.253Z,79.30
2017-12-10T06:21:54.215Z,79.40
2017-12-10T06:24:32.882Z,79.20
2017-12-10T06:27:10.919Z,79.10
2017-12-10T06:29:50.309Z,79.00
2017-12-10T06:32:28.309Z,79.00
2017-12-10T06:35:05.966Z,78.90
2017-12-10T06:37:48.163Z,79.10
2017-12-10T06:40:31.301Z,78.90
2017-12-10T06:43:14.686Z,78.90
2017-12-10T06:45:57.680Z,78.50
2017-12-10T06:48:37.948Z,78.40
2017-12-10T06:51:19.600Z,78.60
2017-12-10T06:53:57.109Z,78.60
2017-12-10T06:56:34.425Z,78.70
2017-12-10T06:59:09.174Z,79.10
2017-12-10T07:01:48.596Z,79.20
2017-12-10T07:04:25.706Z,79.50
2017-12-10T07:07:05.651Z,79.50
2017-12-10T07:09:44.606Z,79.70
2017-12-10T07:12:23.212Z,79.70
2017-12-10T07:14:57.513Z,79.70
2017-12-10T07:17:32.030Z,79.70
2017-12-10T07:20:07.366Z,79.50
2017-12-10T07:22:48.194Z,79.40
2017-12-10T07:25:25.769Z,79.50
2017-12-10T07:28:04.923Z,79.90
2017-12-10T07:30:45.461Z,80.20
2017-12-10T07:33:21.797Z,79.80
2017-12-10T07:35:57.594Z,80.10
2017-12-10T07:38:31.868Z,80.10
2017-12-10T07:41:13.982Z,80.00
2017-12-10T07:43:47.682Z,80.10
2017-12-10T07:46:26.733Z,80.10
2017-12-10T07:49:08.092Z,79.10
2017-12-10T07:51:50.871Z,78.60
2017-12-10T07:54:25.019Z,78.60
2017-12-10T07:57:05.220Z,79.10
2017-12-10T07:59:45.944Z,78.90
2017-12-10T08:02:20.456Z,79.00
2017-12-10T08:04:54.390Z,79.00
2017-12-10T08:07:33.882Z,78.50
2017-12-10T08:10:12.721Z,78.50
2017-12-10T08:12:56.444Z,79.10
2017-12-10T08:15:29.625Z,78.70
2017-12-10T08:18:09.438Z,78.50
2017-12-10T08:20:49.791Z,78.30
2017-12-10T08:23:24.991Z,78.50
2017-12-10T08:25:59.184Z,78.20
2017-12-10T08:28:41.227Z,78.00
2017-12-10T08:31:20.124Z,77.80
2017-12-10T08:34:00.781Z,78.00
2017-12-10T08:36:40.891Z,77.10
2017-12-10T08:39:22.321Z,77.30
2017-12-10T08:42:04.229Z,77.30
2017-12-10T08:44:47.460Z,77.10
2017-12-10T08:47:25.853Z,77.10
2017-12-10T08:50:05.276Z,76.80
2017-12-10T08:52:46.530Z,76.90
2017-12-10T08:55:26.672Z,76.60
2017-12-10T08:58:07.280Z,76.90
2017-12-10T09:00:47.713Z,76.60
2017-12-10T09:03:29.783Z,77.20
2017-12-10T09:06:10.166Z,76.90
2017-12-10T09:08:44.889Z,76.90
2017-12-10T09:11:24.135Z,77.10
2017-12-10T09:14:01.981Z,76.60
2017-12-10T09:16:37.891Z,76.70
2017-12-10T09:19:12.420Z,76.70
2017-12-10T09:21:52.699Z,76.10
2017-12-10T09:24:31.192Z,76.00
2017-12-10T09:27:12.008Z,75.80
2017-12-10T09:29:52.784Z,75.00
2017-12-10T09:32:28.752Z,74.50
2017-12-10T09:35:09.188Z,74.60
2017-12-10T09:37:51.821Z,74.00
2017-12-10T09:40:31.475Z,74.60
2017-12-10T09:43:12.384Z,75.80
2017-12-10T09:45:46.105Z,75.80
2017-12-10T09:48:25.806Z,76.10
2017-12-10T09:51:07.661Z,77.80
2017-12-10T09:53:52.447Z,79.40
2017-12-10T09:56:31.914Z,82.30
2017-12-10T09:59:12.716Z,82.20
2017-12-10T10:01:50.960Z,83.80
2017-12-10T10:04:31.388Z,86.00
2017-12-10T10:07:10.105Z,86.00
2017-12-10T10:09:51.143Z,86.70
2017-12-10T10:12:34.176Z,87.70
2017-12-10T10:15:17.895Z,88.30
2017-12-10T10:18:02.522Z,89.00
2017-12-10T10:20:44.765Z,89.50
2017-12-10T10:23:27.952Z,89.60
2017-12-10T10:26:07.434Z,89.90
2017-12-10T10:28:46.254Z,89.90
2017-12-10T10:31:29.529Z,90.10
2017-12-10T10:34:14.184Z,90.50
2017-12-10T10:36:54.062Z,90.50
2017-12-10T10:39:33.767Z,90.80
2017-12-10T10:42:12.099Z,90.80
2017-12-10T10:44:51.730Z,90.90
2017-12-10T10:47:31.286Z,90.90
2017-12-10T10:50:06.386Z,91.00
2017-12-10T10:52:40.474Z,91.00
2017-12-10T10:55:14.306Z,91.00
2017-12-10T10:57:54.651Z,90.90
2017-12-10T11:00:28.996Z,91.00
2017-12-10T11:03:10.033Z,90.90
2017-12-10T11:05:52.530Z,91.00
2017-12-10T11:08:38.376Z,91.00
2017-12-10T11:11:11.588Z,91.00
2017-12-10T11:13:53.985Z,91.10
2017-12-10T11:16:34.374Z,91.00
2017-12-10T11:19:13.822Z,91.00
2017-12-10T11:21:47.259Z,90.90
2017-12-10T11:24:31.148Z,91.20
2017-12-10T11:27:11.079Z,91.00
2017-12-10T11:29:53.177Z,91.00
2017-12-10T11:32:33.090Z,91.00
2017-12-10T11:35:12.488Z,91.00
2017-12-10T11:37:52.724Z,91.20
2017-12-10T11:40:32.844Z,91.10
2017-12-10T11:43:13.648Z,91.10
2017-12-10T11:45:52.900Z,91.20
2017-12-10T11:48:35.323Z,91.20
2017-12-10T11:51:14.859Z,91.00
2017-12-10T11:53:56.091Z,91.20
2017-12-10T11:56:37.409Z,91.30
2017-12-10T11:59:19.053Z,91.30
2017-12-10T12:01:56.866Z,91.30
2017-12-10T12:04:31.673Z,91.50
2017-12-10T12:07:13.409Z,91.50
2017-12-10T12:09:52.065Z,91.30
2017-12-10T12:12:31.298Z,91.50
2017-12-10T12:15:06.512Z,91.70
2017-12-10T12:17:48.364Z,91.30
2017-12-10T12:20:28.640Z,91.30
2017-12-10T12:23:08.510Z,91.60
2017-12-10T12:25:42.876Z,91.30
2017-12-10T12:28:17.930Z,91.20
2017-12-10T12:30:54.382Z,91.60
2017-12-10T12:33:35.199Z,91.30
2017-12-10T12:36:09.305Z,91.10
2017-12-10T12:38:46.063Z,91.10
2017-12-10T12:41:26.781Z,91.10
2017-12-10T12:44:01.482Z,91.10
2017-12-10T12:46:37.390Z,91.20
2017-12-10T12:49:11.866Z,91.20
2017-12-10T12:51:51.786Z,91.10
2017-12-10T12:54:28.171Z,91.20
2017-12-10T12:57:03.364Z,91.20
2017-12-10T12:59:46.040Z,91.20
2017-12-10T13:02:28.114Z,91.10
2017-12-10T13:05:12.176Z,90.90
2017-12-10T13:07:52.358Z,90.90
2017-12-10T13:10:31.252Z,90.80
2017-12-10T13:13:11.049Z,90.90
2017-12-10T13:15:51.518Z,91.00
2017-12-10T13:18:28.857Z,91.10
2017-12-10T13:21:12.736Z,91.10
2017-12-10T13:23:53.042Z,91.00
2017-12-10T13:26:32.882Z,91.10
2017-12-10T13:29:09.573Z,90.80
2017-12-10T13:31:53.522Z,90.80
2017-12-10T13:34:33.564Z,90.70
2017-12-10T13:37:14.736Z,90.60
2017-12-10T13:39:56.891Z,90.80
2017-12-10T13:42:36.196Z,90.80
2017-12-10T13:45:10.514Z,90.60
2017-12-10T13:47:45.080Z,90.70
2017-12-10T13:50:19.655Z,90.50
2017-12-10T13:53:01.846Z,90.40
2017-12-10T13:55:40.520Z,90.60
2017-12-10T13:58:17.728Z,90.50
2017-12-10T14:00:58.185Z,90.70
2017-12-10T14:03:37.701Z,90.40
2017-12-10T14:06:16.669Z,90.40
2017-12-10T14:08:56.282Z,90.40
2017-12-10T14:11:35.299Z,90.40
2017-12-10T14:14:14.723Z,90.40
2017-12-10T14:16:50.076Z,90.40
2017-12-10T14:19:26.268Z,90.10
2017-12-10T14:22:00.137Z,90.10
2017-12-10T14:24:42.027Z,90.10
2017-12-10T14:27:24.077Z,90.00
2017-12-10T14:30:04.423Z,90.00
2017-12-10T14:32:43.864Z,90.00
2017-12-10T14:35:23.170Z,90.00
2017-12-10T14:37:56.907Z,90.10
2017-12-10T14:40:36.015Z,90.10
2017-12-10T14:43:21.255Z,90.20
2017-12-10T14:45:56.375Z,90.40
2017-12-10T14:48:36.946Z,90.40
2017-12-10T14:51:18.244Z,90.10
2017-12-10T14:53:58.973Z,90.00
2017-12-10T14:56:37.326Z,89.30
2017-12-10T14:59:17.708Z,89.00
2017-12-10T15:01:56.627Z,89.20
2017-12-10T15:04:35.283Z,89.20
2017-12-10T15:07:13.731Z,89.10
2017-12-10T15:09:47.775Z,88.50
2017-12-10T15:12:19.722Z,88.50
2017-12-10T15:15:00.142Z,88.50
2017-12-10T15:17:39.527Z,88.80
2017-12-10T15:20:20.288Z,88.50
2017-12-10T15:23:03.728Z,88.50
2017-12-10T15:25:44.963Z,88.20
2017-12-10T15:28:25.236Z,88.40
2017-12-10T15:31:04.026Z,88.30
2017-12-10T15:33:49.466Z,87.60
2017-12-10T15:36:26.413Z,87.40
2017-12-10T15:39:06.461Z,87.60
2017-12-10T15:41:47.905Z,87.30
2017-12-10T15:44:27.418Z,87.10
2017-12-10T15:47:09.786Z,87.30
2017-12-10T15:49:49.307Z,86.60
2017-12-10T15:52:23.494Z,86.50
2017-12-10T15:54:58.167Z,86.20
2017-12-10T15:57:38.461Z,86.10
2017-12-10T16:00:18.505Z,84.70
2017-12-10T16:02:53.851Z,84.60
2017-12-10T16:05:33.009Z,84.40
2017-12-10T16:08:11.430Z,83.10
2017-12-10T16:10:47.027Z,82.40
2017-12-10T16:13:20.376Z,81.80
2017-12-10T16:15:58.652Z,81.50
2017-12-10T16:18:42.198Z,81.00
2017-12-10T16:21:25.358Z,80.40
2017-12-10T16:23:59.080Z,80.40
2017-12-10T16:26:37.435Z,79.70
2017-12-10T16:29:18.705Z,79.20
2017-12-10T16:32:00.107Z,79.10
2017-12-10T16:34:34.510Z,77.90
2017-12-10T16:37:18.112Z,77.10
2017-12-10T16:39:58.358Z,77.00
2017-12-10T16:42:36.102Z,76.30
2017-12-10T16:45:15.712Z,76.20
2017-12-10T16:47:54.764Z,76.00
2017-12-10T16:50:29.893Z,75.60
2017-12-10T16:53:04.664Z,75.50
2017-12-10T16:55:42.187Z,75.80
2017-12-10T16:58:17.140Z,75.30
2017-12-10T17:00:52.185Z,75.10
2017-12-10T17:03:30.380Z,74.20
2017-12-10T17:06:05.881Z,73.60
2017-12-10T17:08:40.163Z,73.50
2017-12-10T17:11:15.602Z,73.40
2017-12-10T17:13:50.755Z,73.40
2017-12-10T17:16:24.706Z,73.40
2017-12-10T17:18:58.572Z,73.50
2017-12-10T17:21:39.000Z,72.80
2017-12-10T17:24:18.946Z,72.80
2017-12-10T17:26:53.974Z,72.50
2017-12-10T17:29:28.110Z,72.60
2017-12-10T17:32:01.693Z,73.20
2017-12-10T17:34:41.738Z,72.30
2017-12-10T17:37:20.174Z,71.70
2017-12-10T17:39:54.255Z,72.10
2017-12-10T17:42:35.031Z,72.40
2017-12-10T17:45:09.288Z,72.80
2017-12-10T17:47:43.803Z,73.30
2017-12-10T17:50:19.328Z,74.00
2017-12-10T17:52:53.628Z,73.90
2017-12-10T17:55:33.263Z,74.10
2017-12-10T17:58:08.636Z,74.10
2017-12-10T18:00:43.262Z,74.20
2017-12-10T18:03:17.112Z,74.60
2017-12-10T18:05:52.983Z,74.80
2017-12-10T18:08:31.906Z,74.80
2017-12-10T18:11:10.717Z,74.80
2017-12-10T18:13:54.404Z,75.60
2017-12-10T18:16:37.596Z,75.50
2017-12-10T18:19:20.052Z,75.70
2017-12-10T18:21:54.529Z,75.70
2017-12-10T18:24:31.165Z,75.90
2017-12-10T18:27:11.025Z,76.70
2017-12-10T18:29:51.414Z,75.90
2017-12-10T18:32:30.976Z,75.90
2017-12-10T18:35:09.987Z,75.70
2017-12-10T18:37:49.846Z,75.70
2017-12-10T18:40:30.116Z,75.40
2017-12-10T18:43:09.564Z,75.40
2017-12-10T18:45:54.628Z,75.30
2017-12-10T18:48:29.502Z,75.00
2017-12-10T18:51:07.251Z,74.50
2017-12-10T18:53:46.890Z,74.50
2017-12-10T18:56:25.720Z,74.60
2017-12-10T18:58:59.131Z,75.20
2017-12-10T19:01:34.355Z,75.80
2017-12-10T19:04:13.340Z,76.20
2017-12-10T19:06:51.093Z,76.90
2017-12-10T19:09:34.226Z,77.30
2017-12-10T19:12:13.141Z,78.80
2017-12-10T19:14:53.239Z,78.70
2017-12-10T19:17:32.836Z,80.10
2017-12-10T19:20:13.625Z,83.20
2017-12-10T19:22:54.108Z,84.30
2017-12-10T19:25:35.480Z,84.30
2017-12-10T19:28:16.204Z,85.00
2017-12-10T19:30:50.042Z,85.90
2017-12-10T19:33:30.358Z,86.20
2017-12-10T19:36:10.414Z,86.00
2017-12-10T19:38:44.104Z,85.90
2017-12-10T19:41:21.291Z,85.80
2017-12-10T19:44:03.345Z,85.10
2017-12-10T19:46:44.872Z,85.60
2017-12-10T19:49:18.673Z,85.60
2017-12-10T19:51:59.435Z,86.10
2017-12-10T19:54:41.099Z,86.00
2017-12-10T19:57:22.496Z,85.70
2017-12-10T20:00:02.096Z,85.30
2017-12-10T20:02:42.681Z,84.80
2017-12-10T20:05:17.779Z,84.80
2017-12-10T20:07:57.778Z,84.70
2017-12-10T20:10:37.819Z,85.80
2017-12-10T20:13:18.473Z,88.20
2017-12-10T20:15:57.147Z,88.30
2017-12-10T20:18:36.572Z,88.20
2017-12-10T20:21:16.022Z,86.90
2017-12-10T20:23:50.316Z,87.50
2017-12-10T20:26:24.404Z,87.90
2017-12-10T20:28:58.938Z,88.20
2017-12-10T20:31:38.293Z,88.10
2017-12-10T20:34:18.370Z,86.30
2017-12-10T20:36:52.406Z,86.20
2017-12-10T20:39:28.084Z,85.90
2017-12-10T20:42:08.532Z,82.10
2017-12-10T20:44:48.527Z,81.90
2017-12-10T20:47:27.868Z,81.80
2017-12-10T20:50:09.208Z,79.30
2017-12-10T20:52:47.801Z,79.10
2017-12-10T20:55:21.747Z,80.00
2017-12-10T20:58:01.266Z,79.90
2017-12-10T21:00:43.373Z,78.90
2017-12-10T21:03:20.781Z,78.90
2017-12-10T21:06:02.770Z,80.20
2017-12-10T21:08:36.662Z,80.10
2017-12-10T21:11:11.006Z,80.40
2017-12-10T21:13:45.851Z,80.40
2017-12-10T21:16:27.499Z,79.70
2017-12-10T21:19:02.775Z,79.90
2017-12-10T21:21:38.871Z,79.90
2017-12-10T21:24:16.674Z,80.00
2017-12-10T21:26:56.985Z,80.00
2017-12-10T21:29:39.488Z,79.80
2017-12-10T21:32:18.559Z,80.30
2017-12-10T21:34:52.075Z,80.30
2017-12-10T21:37:31.345Z,79.70
2017-12-10T21:40:09.913Z,80.00
2017-12-10T21:42:44.435Z,80.40
2017-12-10T21:45:18.927Z,80.00
2017-12-10T21:47:54.448Z,79.90
2017-12-10T21:50:32.471Z,80.20
2017-12-10T21:53:11.090Z,80.90
2017-12-10T21:55:49.474Z,80.80
2017-12-10T21:58:28.698Z,80.90
2017-12-10T22:01:10.333Z,81.40
2017-12-10T22:03:55.211Z,81.40
2017-12-10T22:06:28.760Z,81.60
2017-12-10T22:09:10.004Z,81.40
2017-12-10T22:11:51.061Z,81.40
2017-12-10T22:14:25.310Z,81.50
2017-12-10T22:16:59.850Z,81.70
2017-12-10T22:19:39.834Z,81.40
2017-12-10T22:22:18.063Z,81.40
2017-12-10T22:24:56.984Z,81.10
2017-12-10T22:27:37.862Z,81.40
2017-12-10T22:30:21.969Z,81.60
2017-12-10T22:33:06.435Z,81.60
2017-12-10T22:35:39.426Z,81.60
2017-12-10T22:38:22.838Z,81.60
2017-12-10T22:41:06.071Z,81.90
2017-12-10T22:43:49.840Z,81.90
2017-12-10T22:46:23.456Z,81.90
2017-12-10T22:49:01.662Z,81.80
2017-12-10T22:51:40.844Z,81.90
2017-12-10T22:54:18.527Z,81.90
2017-12-10T22:56:59.771Z,82.00
2017-12-10T22:59:39.854Z,82.00
2017-12-10T23:02:20.878Z,82.00
2017-12-10T23:04:59.734Z,82.00
2017-12-10T23:07:39.731Z,82.30
2017-12-10T23:10:14.396Z,82.50
2017-12-10T23:13:01.281Z,82.50
2017-12-10T23:15:40.266Z,82.50
2017-12-10T23:18:23.207Z,82.40
2017-12-10T23:21:07.228Z,82.90
2017-12-10T23:23:46.290Z,82.90
2017-12-10T23:26:24.167Z,82.90
2017-12-10T23:29:06.224Z,83.00
2017-12-10T23:31:45.513Z,83.00
2017-12-10T23:34:29.086Z,83.10
2017-12-10T23:37:11.744Z,83.00
2017-12-10T23:39:49.840Z,82.90
2017-12-10T23:42:30.224Z,82.80
2017-12-10T23:45:09.310Z,83.20
2017-12-10T23:47:50.116Z,83.30
2017-12-10T23:50:20.579Z,83.60
2017-12-10T23:52:59.852Z,83.50
2017-12-10T23:55:39.958Z,83.10
2017-12-10T23:58:18.977Z,82.90
